Time;durP1;ratioP1;P1;durP2;ratioP2;P2;SDS_P1;SDS_P2;PMS_P1;PMS_P2;Temp;Humidity;BMP_temperature;BMP_pressure;BME280_temperature;BME280_humidity;BME280_pressure;Samples;Min_cycle;Max_cycle;Signal;HPM_P1;HPM_P2
2021/01/21 00:00:54;;;;;;;0.20;0.20;;;19.70;38.10;;;;;;4827824;29;20113;-81
2021/01/21 00:03:20;;;;;;;0.40;0.22;;;19.60;38.10;;;;;;4830246;29;20408;-79
2021/01/21 00:05:45;;;;;;;0.98;0.38;;;19.60;38.20;;;;;;4831966;29;20062;-80
2021/01/21 00:08:11;;;;;;;0.68;0.50;;;19.60;38.20;;;;;;4833475;29;20037;-80
2021/01/21 00:10:36;;;;;;;3.08;0.65;;;19.60;38.20;;;;;;4820488;29;20034;-80
2021/01/21 00:13:02;;;;;;;3.90;0.50;;;19.60;38.20;;;;;;4837664;29;20141;-80
2021/01/21 00:15:27;;;;;;;0.98;0.43;;;19.60;38.20;;;;;;4821526;29;20046;-80
2021/01/21 00:17:53;;;;;;;1.10;0.40;;;19.60;38.20;;;;;;4813292;29;20162;-79
2021/01/21 00:20:19;;;;;;;2.30;0.40;;;19.60;38.20;;;;;;4813679;29;20423;-80
2021/01/21 00:22:53;;;;;;;1.00;0.60;;;19.60;38.30;;;;;;4823210;29;20125;-80
2021/01/21 00:25:19;;;;;;;2.08;0.40;;;19.60;38.20;;;;;;4807283;29;20167;-80
2021/01/21 00:27:44;;;;;;;0.82;0.20;;;19.50;38.20;;;;;;4823146;29;20058;-79
2021/01/21 00:30:10;;;;;;;1.65;0.38;;;19.50;38.30;;;;;;4822079;29;20022;-80
2021/01/21 00:32:36;;;;;;;0.93;0.38;;;19.50;38.20;;;;;;4796064;29;20410;-81
2021/01/21 00:35:02;;;;;;;0.43;0.30;;;19.50;38.20;;;;;;4822824;29;20092;-81
2021/01/21 00:37:31;;;;;;;0.43;0.43;;;19.50;38.20;;;;;;4806445;29;20037;-80
2021/01/21 00:39:56;;;;;;;2.40;0.60;;;19.50;38.30;;;;;;4816657;29;20045;-81
2021/01/21 00:42:22;;;;;;;1.65;0.30;;;19.50;38.20;;;;;;4820114;29;20026;-82
2021/01/21 00:45:21;;;;;;;1.45;0.40;;;19.50;38.20;;;;;;4836117;29;20105;-82
2021/01/21 00:47:47;;;;;;;0.40;0.30;;;19.50;38.30;;;;;;4807998;29;20094;-79
2021/01/21 00:50:13;;;;;;;1.13;0.57;;;19.50;38.30;;;;;;4824036;29;20105;-79
2021/01/21 00:52:38;;;;;;;1.27;0.50;;;19.40;38.30;;;;;;4810378;29;20135;-80
2021/01/21 00:55:05;;;;;;;1.38;0.52;;;19.40;38.40;;;;;;4812878;29;20038;-79
2021/01/21 00:57:30;;;;;;;1.65;0.60;;;19.40;38.40;;;;;;4824033;29;20829;-79
2021/01/21 00:59:56;;;;;;;0.80;0.38;;;19.40;39.10;;;;;;4827177;29;20131;-80
2021/01/21 01:02:21;;;;;;;2.53;0.60;;;19.40;38.50;;;;;;4818204;29;20400;-82
2021/01/21 01:04:47;;;;;;;0.70;0.65;;;19.40;38.50;;;;;;4806505;29;20117;-80
2021/01/21 01:07:12;;;;;;;2.55;0.20;;;19.40;38.50;;;;;;4818779;29;20395;-80
2021/01/21 01:09:38;;;;;;;0.73;0.40;;;19.40;38.60;;;;;;4832851;29;20099;-80
2021/01/21 01:12:04;;;;;;;3.00;0.60;;;19.40;38.70;;;;;;4809218;29;20046;-81
2021/01/21 01:14:35;;;;;;;0.75;0.50;;;19.40;38.80;;;;;;4798619;29;20112;-80
2021/01/21 01:17:01;;;;;;;1.63;0.50;;;19.30;38.80;;;;;;4828386;29;20046;-80
2021/01/21 01:19:26;;;;;;;0.60;0.52;;;19.30;38.80;;;;;;4822895;29;20038;-80
2021/01/21 01:21:52;;;;;;;0.20;0.20;;;19.30;38.80;;;;;;4793430;29;20054;-80
2021/01/21 01:24:20;;;;;;;1.55;0.30;;;19.30;38.90;;;;;;4817666;29;20077;-80
2021/01/21 01:26:45;;;;;;;0.55;0.43;;;19.30;39.30;;;;;;4820674;29;20079;-81
2021/01/21 01:29:11;;;;;;;0.68;0.45;;;19.20;39.70;;;;;;4820098;29;20027;-80
2021/01/21 01:31:36;;;;;;;0.32;0.32;;;19.20;40.00;;;;;;4804529;29;20521;-80
2021/01/21 01:34:02;;;;;;;0.55;0.55;;;19.20;40.30;;;;;;4801072;29;20041;-81
2021/01/21 01:36:28;;;;;;;0.85;0.50;;;19.20;40.20;;;;;;4825751;29;20025;-80
2021/01/21 01:38:53;;;;;;;2.88;0.50;;;19.20;40.30;;;;;;4823641;29;20038;-81
2021/01/21 01:41:19;;;;;;;0.80;0.30;;;19.20;40.30;;;;;;4813108;29;20037;-81
2021/01/21 01:43:47;;;;;;;0.20;0.20;;;19.20;40.30;;;;;;4825953;29;20034;-80
2021/01/21 01:46:12;;;;;;;1.92;0.50;;;19.20;40.30;;;;;;4805500;29;20042;-80
2021/01/21 01:48:38;;;;;;;1.13;0.45;;;19.10;40.30;;;;;;4807752;29;20030;-80
2021/01/21 01:51:04;;;;;;;0.95;0.50;;;19.10;40.60;;;;;;4822653;29;20145;-78
2021/01/21 01:53:30;;;;;;;2.05;0.40;;;19.10;40.70;;;;;;4795968;29;20415;-79
2021/01/21 01:55:56;;;;;;;0.98;0.68;;;19.10;40.90;;;;;;4790591;29;20039;-79
2021/01/21 01:58:21;;;;;;;0.73;0.40;;;19.10;40.90;;;;;;4806476;29;20046;-77
2021/01/21 02:00:47;;;;;;;1.38;0.43;;;19.10;40.90;;;;;;4810282;29;20149;-77
2021/01/21 02:03:12;;;;;;;0.47;0.30;;;19.10;41.00;;;;;;4805702;29;20058;-78
2021/01/21 02:05:38;;;;;;;2.63;0.65;;;19.10;41.00;;;;;;4808836;29;20019;-73
2021/01/21 02:08:04;;;;;;;0.40;0.40;;;19.10;41.00;;;;;;4825405;29;20706;-73
2021/01/21 02:10:29;;;;;;;0.70;0.70;;;19.20;41.00;;;;;;4812029;29;20050;-73
2021/01/21 02:13:37;;;;;;;1.42;0.50;;;19.20;40.90;;;;;;4826375;29;20050;-73
2021/01/21 02:16:08;;;;;;;0.40;0.30;;;19.20;41.00;;;;;;4804266;29;20050;-73
2021/01/21 02:18:40;;;;;;;0.75;0.40;;;19.20;41.20;;;;;;4819959;29;20041;-73
2021/01/21 02:21:17;;;;;;;2.13;0.52;;;19.10;41.30;;;;;;4797193;29;20525;-72
2021/01/21 02:24:02;;;;;;;0.40;0.40;;;19.10;41.40;;;;;;4826556;29;20380;-73
2021/01/21 02:26:49;;;;;;;2.25;0.52;;;19.10;41.50;;;;;;4825607;29;20034;-73
2021/01/21 02:29:21;;;;;;;2.17;0.50;;;19.10;41.60;;;;;;4817935;29;20049;-73
2021/01/21 02:32:01;;;;;;;1.65;0.38;;;19.10;41.70;;;;;;4820440;29;20040;-73
2021/01/21 02:34:45;;;;;;;1.52;0.45;;;19.10;41.80;;;;;;4827821;29;20057;-73
2021/01/21 02:37:23;;;;;;;0.15;0.13;;;19.10;41.80;;;;;;4817678;29;20049;-75
2021/01/21 02:39:49;;;;;;;2.28;0.40;;;19.10;41.80;;;;;;4780547;29;20061;-73
2021/01/21 02:42:15;;;;;;;0.47;0.30;;;19.10;41.70;;;;;;4780834;29;20042;-73
2021/01/21 02:44:41;;;;;;;0.70;0.60;;;19.10;41.80;;;;;;4809694;29;20039;-73
2021/01/21 02:47:07;;;;;;;0.93;0.40;;;19.10;41.90;;;;;;4832951;29;20037;-74
2021/01/21 02:49:32;;;;;;;0.65;0.50;;;19.10;42.10;;;;;;4803818;29;20033;-73
2021/01/21 02:52:01;;;;;;;1.80;0.55;;;19.10;42.00;;;;;;4800953;29;20128;-72
2021/01/21 02:54:40;;;;;;;0.52;0.35;;;19.00;42.30;;;;;;4827294;29;20068;-72
2021/01/21 02:57:11;;;;;;;0.57;0.50;;;19.00;42.20;;;;;;4792972;29;20058;-73
2021/01/21 02:59:38;;;;;;;0.75;0.57;;;19.00;42.30;;;;;;4818716;29;20451;-73
2021/01/21 03:02:08;;;;;;;1.00;0.30;;;19.00;42.50;;;;;;4795061;29;20038;-72
2021/01/21 03:04:37;;;;;;;2.22;0.50;;;19.00;42.40;;;;;;4798468;29;20494;-72
2021/01/21 03:07:28;;;;;;;0.93;0.32;;;19.00;42.30;;;;;;4798223;29;20026;-73
2021/01/21 03:09:53;;;;;;;0.28;0.25;;;19.00;42.40;;;;;;4820019;29;20442;-72
2021/01/21 03:15:54;;;;;;;0.80;0.45;;;19.10;42.50;;;;;;4812622;29;20486;-73
2021/01/21 03:18:20;;;;;;;0.30;0.30;;;19.10;42.50;;;;;;4793576;29;20067;-73
2021/01/21 03:20:46;;;;;;;1.13;0.30;;;19.10;42.50;;;;;;4797010;29;20038;-73
2021/01/21 03:23:11;;;;;;;0.55;0.20;;;19.10;42.50;;;;;;4815771;29;20031;-73
2021/01/21 03:25:37;;;;;;;0.55;0.30;;;19.10;42.40;;;;;;4809313;29;20035;-73
2021/01/21 03:28:08;;;;;;;2.08;0.65;;;19.10;42.40;;;;;;4803912;29;20043;-72
2021/01/21 03:30:34;;;;;;;0.40;0.40;;;19.10;42.60;;;;;;4814862;29;20159;-72
2021/01/21 03:33:00;;;;;;;0.35;0.30;;;19.10;42.80;;;;;;4811765;29;20113;-73
2021/01/21 03:35:25;;;;;;;2.97;0.70;;;19.10;42.90;;;;;;4812629;29;20047;-72
2021/01/21 03:37:51;;;;;;;0.68;0.50;;;19.10;43.30;;;;;;4792053;29;20610;-72
2021/01/21 03:40:16;;;;;;;1.02;0.40;;;19.10;43.10;;;;;;4791210;29;20034;-72
2021/01/21 03:42:42;;;;;;;0.45;0.45;;;19.10;42.60;;;;;;4804511;29;20031;-73
2021/01/21 03:45:08;;;;;;;1.27;0.30;;;19.10;41.80;;;;;;4806221;29;20495;-72
2021/01/21 03:47:34;;;;;;;3.15;0.30;;;19.10;41.70;;;;;;4806134;29;20496;-74
2021/01/21 03:49:59;;;;;;;1.65;0.30;;;19.10;41.70;;;;;;4795456;29;20046;-74
2021/01/21 03:52:25;;;;;;;1.40;0.28;;;19.00;41.50;;;;;;4817147;29;20400;-72
2021/01/21 03:54:50;;;;;;;0.60;0.32;;;19.00;41.60;;;;;;4813569;29;20043;-73
2021/01/21 03:57:16;;;;;;;4.50;0.40;;;19.10;41.90;;;;;;4807853;29;20081;-73
2021/01/21 03:59:41;;;;;;;0.35;0.30;;;19.10;42.10;;;;;;4806905;29;20084;-72
2021/01/21 04:02:07;;;;;;;0.85;0.20;;;19.10;42.00;;;;;;4783250;29;20439;-72
2021/01/21 04:04:32;;;;;;;0.63;0.30;;;19.10;41.80;;;;;;4812483;29;20034;-72
2021/01/21 04:06:58;;;;;;;0.90;0.38;;;19.10;41.60;;;;;;4806096;29;20065;-74
2021/01/21 04:09:24;;;;;;;3.83;0.20;;;19.10;41.50;;;;;;4814581;29;20074;-72
2021/01/21 04:11:51;;;;;;;1.95;0.40;;;19.00;41.30;;;;;;4783112;29;20043;-73
2021/01/21 04:14:16;;;;;;;1.85;0.30;;;19.00;41.30;;;;;;4791750;29;20066;-72
2021/01/21 04:16:42;;;;;;;0.00;0.00;;;19.00;41.60;;;;;;4822529;29;20484;-74
2021/01/21 04:19:08;;;;;;;0.28;0.10;;;19.00;41.50;;;;;;4809249;29;20385;-73
2021/01/21 04:21:33;;;;;;;0.40;0.10;;;19.00;41.50;;;;;;4805653;29;20118;-73
2021/01/21 04:24:00;;;;;;;0.20;0.00;;;18.90;41.30;;;;;;4822003;29;20055;-73
2021/01/21 04:26:29;;;;;;;0.32;0.30;;;18.90;41.30;;;;;;4822153;29;20045;-72
2021/01/21 04:28:55;;;;;;;0.52;0.22;;;18.90;41.30;;;;;;4828012;29;20495;-73
2021/01/21 04:31:20;;;;;;;0.98;0.30;;;18.90;41.40;;;;;;4808842;29;20031;-72
2021/01/21 04:33:46;;;;;;;1.17;0.10;;;18.90;41.50;;;;;;4812978;29;20076;-72
2021/01/21 04:36:11;;;;;;;0.55;0.22;;;18.90;41.40;;;;;;4812074;29;20510;-72
2021/01/21 04:38:37;;;;;;;0.22;0.00;;;18.90;41.20;;;;;;4823863;29;20049;-74
2021/01/21 04:41:03;;;;;;;0.80;0.15;;;18.80;41.20;;;;;;4810146;29;20411;-73
2021/01/21 04:43:28;;;;;;;3.35;0.10;;;18.80;41.20;;;;;;4807012;29;20337;-73
2021/01/21 04:45:54;;;;;;;1.95;0.10;;;18.80;41.00;;;;;;4800049;29;20030;-73
2021/01/21 04:48:21;;;;;;;0.45;0.30;;;18.80;41.10;;;;;;4808743;29;20050;-74
2021/01/21 04:50:47;;;;;;;1.85;0.20;;;18.90;41.10;;;;;;4811970;29;20030;-74
2021/01/21 04:53:13;;;;;;;2.72;0.35;;;18.80;41.10;;;;;;4817636;29;20114;-74
2021/01/21 04:55:43;;;;;;;2.72;0.47;;;18.90;41.40;;;;;;4803773;29;20296;-74
2021/01/21 04:58:28;;;;;;;1.27;0.85;;;18.90;41.20;;;;;;4807363;29;20042;-74
2021/01/21 05:00:54;;;;;;;3.50;0.60;;;18.90;41.20;;;;;;4820752;29;20418;-74
2021/01/21 05:03:19;;;;;;;1.30;0.45;;;18.90;41.00;;;;;;4795195;29;20034;-73
2021/01/21 05:05:45;;;;;;;1.38;0.30;;;18.90;41.30;;;;;;4823381;29;20472;-73
2021/01/21 05:08:10;;;;;;;0.22;0.20;;;19.00;42.00;;;;;;4802908;29;20515;-73
2021/01/21 05:10:36;;;;;;;0.47;0.30;;;19.00;41.50;;;;;;4815197;29;20026;-73
2021/01/21 05:13:02;;;;;;;0.88;0.30;;;19.00;41.50;;;;;;4816412;29;20050;-73
2021/01/21 05:15:27;;;;;;;0.85;0.47;;;19.10;41.50;;;;;;4806531;29;20042;-74
2021/01/21 05:17:53;;;;;;;3.05;0.40;;;19.10;41.70;;;;;;4806717;29;20096;-74
2021/01/21 05:20:25;;;;;;;0.40;0.20;;;19.10;41.60;;;;;;4823626;29;20526;-73
2021/01/21 05:23:00;;;;;;;1.17;0.30;;;19.10;41.20;;;;;;4805987;29;20037;-73
2021/01/21 05:25:27;;;;;;;0.32;0.22;;;19.10;41.20;;;;;;4804297;29;20033;-72
2021/01/21 05:28:18;;;;;;;0.13;0.13;;;19.10;41.30;;;;;;4825213;29;20062;-80
2021/01/21 05:30:45;;;;;;;1.75;0.75;;;19.20;41.40;;;;;;4816556;29;20107;-80
2021/01/21 05:33:10;;;;;;;0.90;0.40;;;19.20;41.20;;;;;;4800807;29;20038;-80
2021/01/21 05:35:36;;;;;;;2.42;0.28;;;19.20;41.30;;;;;;4791798;29;20106;-80
2021/01/21 05:38:02;;;;;;;0.63;0.43;;;19.30;41.40;;;;;;4806513;29;20423;-80
2021/01/21 05:40:28;;;;;;;2.15;0.60;;;19.30;41.70;;;;;;4816318;29;20041;-80
2021/01/21 05:42:55;;;;;;;0.32;0.25;;;19.40;41.50;;;;;;4799089;29;20031;-80
2021/01/21 05:45:21;;;;;;;0.43;0.30;;;19.40;41.30;;;;;;4823729;29;20025;-78
2021/01/21 05:47:56;;;;;;;1.95;0.25;;;19.50;41.50;;;;;;4807173;29;20364;-78
2021/01/21 05:50:22;;;;;;;0.63;0.30;;;19.40;41.20;;;;;;4813032;29;20023;-77
2021/01/21 05:52:48;;;;;;;1.08;0.30;;;19.50;41.50;;;;;;4803641;29;20030;-77
2021/01/21 05:55:14;;;;;;;0.32;0.20;;;19.50;41.20;;;;;;4804230;29;20050;-77
2021/01/21 05:57:40;;;;;;;1.08;0.20;;;19.50;41.40;;;;;;4800415;29;20042;-77
2021/01/21 06:00:06;;;;;;;0.80;0.30;;;19.50;40.90;;;;;;4795268;29;20556;-78
2021/01/21 06:02:32;;;;;;;0.70;0.17;;;19.60;40.40;;;;;;4816023;29;20117;-80
2021/01/21 06:05:01;;;;;;;0.30;0.30;;;19.60;41.40;;;;;;4804835;29;20054;-80
2021/01/21 06:07:33;;;;;;;0.98;0.35;;;19.60;41.00;;;;;;4790482;29;20512;-79
2021/01/21 06:09:59;;;;;;;0.60;0.30;;;19.60;41.40;;;;;;4818685;29;20026;-78
2021/01/21 06:12:28;;;;;;;0.50;0.30;;;19.70;41.60;;;;;;4830849;29;20034;-76
2021/01/21 06:15:00;;;;;;;0.32;0.10;;;19.70;40.70;;;;;;4814345;29;20064;-79
2021/01/21 06:17:27;;;;;;;3.40;0.55;;;19.70;41.00;;;;;;4818379;29;20050;-78
2021/01/21 06:19:52;;;;;;;1.08;0.30;;;19.70;41.10;;;;;;4800295;29;20030;-78
2021/01/21 06:22:19;;;;;;;1.98;0.10;;;19.70;41.40;;;;;;4838435;29;20054;-79
2021/01/21 06:24:44;;;;;;;4.53;0.75;;;19.80;41.10;;;;;;4806577;29;20046;-79
2021/01/21 06:30:32;;;;;;;0.40;0.10;;;19.80;41.30;;;;;;4825007;29;20075;-79
2021/01/21 06:33:05;;;;;;;0.15;0.15;;;19.80;41.20;;;;;;4820725;29;20041;-79
2021/01/21 06:35:41;;;;;;;0.30;0.20;;;19.80;40.60;;;;;;4813889;29;20062;-80
2021/01/21 06:38:10;;;;;;;0.77;0.30;;;19.80;40.60;;;;;;4798389;29;20418;-80
2021/01/21 06:40:36;;;;;;;2.70;0.65;;;19.80;40.70;;;;;;4802702;29;20022;-81
2021/01/21 06:43:11;;;;;;;0.55;0.22;;;19.80;41.10;;;;;;4795407;29;20054;-79
2021/01/21 06:45:36;;;;;;;2.15;0.25;;;19.80;41.10;;;;;;4817273;29;20052;-80
2021/01/21 06:48:07;;;;;;;0.80;0.30;;;19.80;41.10;;;;;;4810250;29;20491;-80
2021/01/21 06:50:33;;;;;;;0.22;0.17;;;19.80;40.60;;;;;;4809391;29;20062;-80
2021/01/21 06:52:59;;;;;;;0.93;0.30;;;19.80;41.70;;;;;;4808776;29;20080;-79
2021/01/21 06:55:25;;;;;;;0.40;0.20;;;19.80;40.90;;;;;;4803590;29;20399;-80
2021/01/21 06:57:51;;;;;;;0.20;0.20;;;19.80;41.30;;;;;;4813985;29;20042;-81
2021/01/21 07:00:17;;;;;;;1.17;0.38;;;19.90;41.50;;;;;;4809726;29;20546;-78
2021/01/21 07:02:43;;;;;;;1.08;0.30;;;19.90;41.40;;;;;;4825452;29;20479;-80
2021/01/21 07:05:13;;;;;;;0.73;0.20;;;19.90;41.50;;;;;;4828028;29;20197;-79
2021/01/21 07:07:56;;;;;;;0.40;0.40;;;20.00;41.50;;;;;;4830691;29;20082;-81
2021/01/21 07:10:37;;;;;;;1.45;0.20;;;20.00;40.90;;;;;;4814878;29;20030;-72
2021/01/21 07:13:20;;;;;;;0.52;0.30;;;19.90;40.90;;;;;;4805523;29;20038;-71
2021/01/21 07:15:50;;;;;;;3.83;0.30;;;19.90;40.90;;;;;;4792801;29;20064;-72
2021/01/21 07:18:32;;;;;;;1.85;0.20;;;20.00;40.70;;;;;;4802820;29;20027;-72
2021/01/21 07:21:05;;;;;;;2.08;0.52;;;20.00;40.70;;;;;;4803196;29;20035;-72
2021/01/21 07:23:42;;;;;;;4.78;0.75;;;20.00;40.60;;;;;;4824745;29;20381;-72
2021/01/21 07:26:20;;;;;;;0.63;0.13;;;20.00;40.50;;;;;;4793830;29;20095;-72
2021/01/21 07:29:05;;;;;;;3.42;0.50;;;20.00;40.40;;;;;;4822019;29;20498;-72
2021/01/21 07:32:12;;;;;;;3.43;0.33;;;20.10;40.40;;;;;;4819370;29;20123;-72
2021/01/21 07:34:40;;;;;;;0.17;0.17;;;20.00;40.30;;;;;;4817416;29;20030;-72
2021/01/21 07:37:19;;;;;;;2.38;0.57;;;20.00;40.20;;;;;;4824055;29;20091;-72
2021/01/21 07:39:50;;;;;;;0.22;0.20;;;20.00;40.10;;;;;;4824994;29;20030;-72
2021/01/21 07:42:16;;;;;;;1.13;0.28;;;20.00;40.10;;;;;;4824128;29;20037;-72
2021/01/21 07:45:04;;;;;;;0.98;0.60;;;20.00;40.10;;;;;;4801783;29;20047;-72
2021/01/21 07:47:31;;;;;;;0.20;0.20;;;20.00;40.20;;;;;;4812766;29;20163;-73
2021/01/21 07:50:18;;;;;;;0.38;0.25;;;20.00;40.10;;;;;;4823311;29;20031;-73
2021/01/21 07:52:45;;;;;;;1.45;0.63;;;20.00;40.70;;;;;;4820277;29;20073;-74
2021/01/21 07:55:11;;;;;;;1.02;0.30;;;20.00;39.90;;;;;;4808328;29;20043;-72
2021/01/21 07:57:37;;;;;;;1.20;0.20;;;20.00;40.00;;;;;;4805918;29;20431;-72
2021/01/21 08:00:08;;;;;;;2.03;0.32;;;20.00;40.00;;;;;;4791596;29;20042;-72
2021/01/21 08:02:46;;;;;;;0.38;0.25;;;20.10;40.00;;;;;;4789691;29;20042;-73
2021/01/21 08:05:23;;;;;;;0.10;0.10;;;20.10;39.90;;;;;;4805414;29;20031;-72
2021/01/21 08:07:49;;;;;;;1.08;0.20;;;20.10;39.90;;;;;;4802750;29;20027;-72
2021/01/21 08:10:19;;;;;;;0.30;0.17;;;20.10;39.80;;;;;;4818888;29;20023;-72
2021/01/21 08:12:51;;;;;;;0.00;0.00;;;20.10;39.90;;;;;;4791851;29;20522;-72
2021/01/21 08:15:18;;;;;;;0.98;0.30;;;20.10;39.70;;;;;;4807686;29;20050;-72
2021/01/21 08:17:45;;;;;;;0.60;0.10;;;20.10;39.70;;;;;;4807546;29;20512;-72
2021/01/21 08:20:11;;;;;;;0.22;0.20;;;20.10;39.60;;;;;;4774745;29;20043;-73
2021/01/21 08:23:05;;;;;;;2.55;0.20;;;20.20;39.70;;;;;;4802877;29;20407;-73
2021/01/21 08:25:42;;;;;;;1.27;0.30;;;20.10;39.70;;;;;;4793093;29;20042;-74
2021/01/21 08:28:08;;;;;;;0.88;0.32;;;20.10;39.90;;;;;;4803802;29;20058;-74
2021/01/21 08:30:36;;;;;;;1.08;0.20;;;20.10;40.30;;;;;;4797803;29;20070;-75
2021/01/21 08:33:03;;;;;;;0.65;0.20;;;20.10;40.40;;;;;;4823411;29;20030;-79
2021/01/21 08:35:35;;;;;;;0.43;0.20;;;20.00;40.40;;;;;;4804994;29;20084;-79
2021/01/21 08:38:01;;;;;;;0.20;0.20;;;20.10;40.70;;;;;;4808175;29;20121;-80
2021/01/21 08:40:26;;;;;;;8.27;0.30;;;20.10;40.70;;;;;;4793063;29;20113;-80
2021/01/21 08:42:53;;;;;;;0.47;0.17;;;20.20;40.80;;;;;;4806250;29;20125;-79
2021/01/21 08:45:19;;;;;;;0.95;0.10;;;20.10;40.60;;;;;;4807006;29;20030;-80
2021/01/21 08:47:46;;;;;;;0.98;0.30;;;20.10;40.40;;;;;;4821417;29;20026;-79
2021/01/21 08:50:12;;;;;;;0.38;0.10;;;20.10;40.50;;;;;;4806305;29;20047;-79
2021/01/21 08:52:57;;;;;;;5.50;0.40;;;20.10;40.40;;;;;;4819548;29;20058;-79
2021/01/21 08:55:23;;;;;;;0.20;0.03;;;20.10;40.70;;;;;;4785858;29;20401;-80
2021/01/21 08:58:02;;;;;;;0.95;0.30;;;20.10;40.50;;;;;;4791955;29;20065;-80
2021/01/21 09:00:28;;;;;;;1.02;0.28;;;20.10;40.50;;;;;;4805902;29;20042;-78
2021/01/21 09:02:54;;;;;;;2.65;0.43;;;20.10;40.70;;;;;;4791309;29;20527;-78
2021/01/21 09:05:19;;;;;;;0.40;0.20;;;20.10;40.70;;;;;;4791356;29;20098;-77
2021/01/21 09:07:45;;;;;;;2.45;0.38;;;20.10;40.40;;;;;;4820310;29;20432;-79
2021/01/21 09:10:14;;;;;;;2.03;0.30;;;20.20;40.10;;;;;;4799171;29;20113;-80
2021/01/21 09:12:39;;;;;;;0.50;0.22;;;20.20;39.70;;;;;;4806165;29;20069;-76
2021/01/21 09:15:07;;;;;;;1.40;0.35;;;20.20;40.00;;;;;;4806393;29;20081;-78
2021/01/21 09:17:32;;;;;;;1.30;0.30;;;20.20;39.80;;;;;;4822324;29;20108;-79
2021/01/21 09:19:59;;;;;;;0.15;0.10;;;20.30;39.80;;;;;;4821410;29;20057;-79
2021/01/21 09:22:36;;;;;;;0.30;0.10;;;20.30;39.70;;;;;;4816866;29;20039;-79
2021/01/21 09:25:05;;;;;;;0.28;0.20;;;20.30;39.60;;;;;;4808546;29;20038;-79
2021/01/21 09:27:31;;;;;;;0.10;0.10;;;20.40;39.60;;;;;;4823266;29;20031;-79
2021/01/21 09:30:01;;;;;;;0.30;0.20;;;20.40;39.40;;;;;;4819766;29;20041;-81
2021/01/21 09:32:26;;;;;;;0.52;0.20;;;20.40;39.20;;;;;;4807251;29;20022;-80
2021/01/21 09:35:05;;;;;;;0.65;0.28;;;20.40;39.20;;;;;;4817582;29;20026;-79
2021/01/21 09:37:44;;;;;;;0.17;0.17;;;20.40;39.20;;;;;;4821256;29;20026;-80
2021/01/21 09:40:22;;;;;;;0.45;0.20;;;20.40;39.10;;;;;;4806347;29;20114;-80
2021/01/21 09:42:47;;;;;;;0.50;0.20;;;20.30;39.30;;;;;;4805200;29;20381;-80
2021/01/21 09:45:13;;;;;;;2.70;0.30;;;20.30;39.30;;;;;;4793017;29;20042;-81
2021/01/21 09:47:39;;;;;;;0.70;0.20;;;20.30;39.20;;;;;;4793847;29;20044;-81
2021/01/21 09:50:06;;;;;;;4.47;0.30;;;20.30;39.90;;;;;;4800400;29;20043;-76
2021/01/21 09:52:40;;;;;;;2.15;0.28;;;20.20;39.20;;;;;;4790367;29;20030;-79
2021/01/21 09:55:06;;;;;;;0.28;0.10;;;20.20;39.40;;;;;;4796645;29;20459;-74
2021/01/21 09:57:32;;;;;;;0.95;0.45;;;20.20;39.40;;;;;;4793016;29;20073;-78
2021/01/21 09:59:58;;;;;;;1.13;0.20;;;20.20;39.40;;;;;;4789891;29;20038;-75
2021/01/21 10:02:23;;;;;;;0.90;0.20;;;20.20;39.40;;;;;;4804745;29;20070;-75
2021/01/21 10:04:49;;;;;;;0.65;0.20;;;20.20;39.30;;;;;;4804933;29;20502;-79
2021/01/21 10:07:15;;;;;;;1.45;0.10;;;20.20;39.00;;;;;;4804641;29;20034;-80
2021/01/21 10:09:40;;;;;;;0.25;0.25;;;20.20;39.20;;;;;;4808141;29;20030;-77
2021/01/21 10:12:06;;;;;;;0.60;0.30;;;20.20;39.30;;;;;;4812871;29;20034;-77
2021/01/21 10:14:32;;;;;;;0.80;0.20;;;20.30;39.30;;;;;;4782526;29;20050;-77
2021/01/21 10:16:58;;;;;;;0.52;0.30;;;20.30;39.30;;;;;;4805408;29;20561;-77
2021/01/21 10:19:24;;;;;;;0.30;0.30;;;20.30;39.20;;;;;;4823383;29;20487;-77
2021/01/21 10:21:50;;;;;;;2.28;0.60;;;20.40;39.10;;;;;;4799370;29;20034;-77
2021/01/21 10:24:16;;;;;;;2.95;0.55;;;20.40;38.90;;;;;;4822487;29;20057;-76
2021/01/21 10:26:41;;;;;;;0.65;0.30;;;20.40;38.60;;;;;;4818775;29;20560;-77
2021/01/21 10:29:07;;;;;;;3.20;0.52;;;20.40;38.80;;;;;;4800355;29;20038;-77
2021/01/21 10:31:33;;;;;;;1.13;0.20;;;20.40;38.70;;;;;;4818450;29;20030;-77
2021/01/21 10:33:58;;;;;;;0.32;0.30;;;20.40;38.90;;;;;;4821961;29;20046;-77
2021/01/21 10:36:24;;;;;;;3.88;0.45;;;20.40;38.90;;;;;;4790562;29;20034;-78
2021/01/21 10:38:50;;;;;;;2.72;0.50;;;20.30;38.80;;;;;;4805649;29;20038;-72
2021/01/21 10:41:16;;;;;;;2.67;0.30;;;20.30;38.90;;;;;;4824078;29;20105;-71
2021/01/21 10:43:41;;;;;;;3.60;0.30;;;20.30;38.90;;;;;;4809881;29;20030;-74
2021/01/21 10:46:07;;;;;;;0.50;0.20;;;20.30;38.80;;;;;;4794798;29;20112;-73
2021/01/21 10:48:32;;;;;;;2.63;0.22;;;20.30;38.80;;;;;;4808102;29;20037;-73
2021/01/21 10:50:58;;;;;;;1.75;0.20;;;20.30;39.00;;;;;;4798224;29;20084;-73
2021/01/21 10:53:23;;;;;;;0.47;0.30;;;20.30;39.00;;;;;;4824402;29;20130;-86
2021/01/21 10:55:49;;;;;;;1.38;0.40;;;20.40;39.20;;;;;;4828896;29;20080;-84
2021/01/21 10:58:15;;;;;;;0.50;0.38;;;20.30;39.20;;;;;;4844231;29;20034;-84
2021/01/21 11:00:44;;;;;;;4.35;0.60;;;20.30;39.20;;;;;;4810861;29;20030;-84
2021/01/21 11:03:09;;;;;;;0.65;0.30;;;20.30;39.10;;;;;;4824532;29;20068;-73
2021/01/21 11:05:35;;;;;;;1.33;0.40;;;20.40;39.00;;;;;;4822621;29;20141;-73
2021/01/21 11:08:01;;;;;;;0.22;0.10;;;20.40;38.90;;;;;;4824933;29;20095;-73
2021/01/21 11:10:26;;;;;;;0.28;0.28;;;20.40;39.00;;;;;;4824567;29;20054;-73
2021/01/21 11:12:52;;;;;;;0.43;0.35;;;20.40;39.00;;;;;;4793842;29;20083;-83
2021/01/21 11:15:18;;;;;;;1.95;0.20;;;20.40;38.70;;;;;;4809406;29;20050;-83
2021/01/21 11:17:44;;;;;;;3.10;0.60;;;20.50;38.70;;;;;;4824563;29;20062;-73
2021/01/21 11:20:12;;;;;;;0.68;0.20;;;20.40;38.20;;;;;;4821494;29;20069;-73
2021/01/21 11:22:38;;;;;;;2.40;0.30;;;20.40;38.50;;;;;;4792955;29;20385;-73
2021/01/21 11:25:05;;;;;;;0.77;0.30;;;20.40;38.50;;;;;;4825317;29;20038;-73
2021/01/21 11:27:31;;;;;;;2.03;0.52;;;20.40;38.00;;;;;;4814655;29;20094;-74
2021/01/21 11:29:57;;;;;;;0.95;0.10;;;20.30;38.40;;;;;;4807670;29;20030;-73
2021/01/21 11:32:22;;;;;;;0.70;0.20;;;20.30;38.30;;;;;;4821800;29;20554;-73
2021/01/21 11:34:48;;;;;;;2.78;0.40;;;20.30;38.70;;;;;;4808889;29;20117;-73
2021/01/21 11:37:13;;;;;;;2.20;0.90;;;20.30;38.70;;;;;;4808746;29;20059;-73
2021/01/21 11:39:39;;;;;;;0.88;0.30;;;20.30;38.70;;;;;;4824601;29;20412;-73
2021/01/21 11:42:04;;;;;;;1.13;0.57;;;20.30;38.80;;;;;;4807981;29;20099;-70
2021/01/21 11:44:30;;;;;;;0.77;0.20;;;20.30;38.80;;;;;;4807350;29;20033;-70
2021/01/21 11:46:56;;;;;;;4.38;0.45;;;20.30;38.90;;;;;;4790627;29;20095;-69
2021/01/21 11:49:21;;;;;;;0.22;0.10;;;20.30;38.90;;;;;;4821155;29;20027;-69
2021/01/21 11:51:47;;;;;;;0.90;0.30;;;20.20;38.90;;;;;;4822782;29;20030;-70
2021/01/21 11:54:13;;;;;;;0.95;0.40;;;20.20;38.90;;;;;;4823477;29;20137;-70
2021/01/21 11:56:38;;;;;;;0.63;0.20;;;20.20;38.90;;;;;;4806868;29;20050;-70
2021/01/21 11:59:04;;;;;;;0.40;0.20;;;20.20;39.10;;;;;;4807114;29;20069;-69
2021/01/21 12:01:29;;;;;;;3.05;0.20;;;20.20;39.10;;;;;;4805322;29;20098;-69
2021/01/21 12:03:55;;;;;;;0.70;0.25;;;20.10;39.20;;;;;;4807357;29;20081;-69
2021/01/21 12:06:21;;;;;;;2.88;0.30;;;20.10;39.20;;;;;;4822905;29;20034;-70
2021/01/21 12:08:46;;;;;;;1.73;0.30;;;20.10;39.10;;;;;;4806014;29;20414;-70
2021/01/21 12:11:12;;;;;;;0.35;0.20;;;20.10;39.20;;;;;;4819284;29;20031;-69
2021/01/21 12:13:38;;;;;;;2.53;0.30;;;20.10;39.70;;;;;;4804253;29;20524;-69
2021/01/21 12:16:03;;;;;;;1.13;0.30;;;20.10;39.20;;;;;;4822677;29;20038;-76
2021/01/21 12:18:29;;;;;;;0.93;0.50;;;20.10;38.90;;;;;;4823256;29;20071;-75
2021/01/21 12:20:54;;;;;;;1.48;0.40;;;20.10;38.90;;;;;;4806814;29;20559;-76
2021/01/21 12:23:20;;;;;;;5.82;0.80;;;20.10;39.20;;;;;;4823579;29;20037;-76
2021/01/21 12:25:46;;;;;;;0.57;0.32;;;20.10;39.20;;;;;;4815679;29;20049;-76
2021/01/21 12:28:12;;;;;;;0.30;0.15;;;20.10;39.30;;;;;;4821980;29;20422;-76
2021/01/21 12:30:37;;;;;;;4.15;0.40;;;20.10;39.30;;;;;;4790349;29;20041;-76
2021/01/21 12:33:03;;;;;;;0.85;0.40;;;20.10;39.00;;;;;;4825374;29;20038;-76
2021/01/21 12:35:28;;;;;;;1.05;0.50;;;20.10;39.30;;;;;;4807036;29;20053;-76
2021/01/21 12:37:54;;;;;;;1.08;0.30;;;20.10;39.60;;;;;;4805818;29;20055;-76
2021/01/21 12:40:19;;;;;;;1.00;0.20;;;20.10;39.10;;;;;;4792568;29;20133;-76
2021/01/21 12:42:45;;;;;;;2.25;0.50;;;20.10;39.00;;;;;;4815655;29;20407;-76
2021/01/21 12:45:11;;;;;;;2.53;0.28;;;20.10;39.00;;;;;;4823687;29;20068;-76
2021/01/21 12:47:43;;;;;;;1.45;0.38;;;20.10;39.20;;;;;;4828709;29;20030;-75
2021/01/21 12:50:09;;;;;;;0.30;0.30;;;20.10;39.20;;;;;;4810017;29;20415;-75
2021/01/21 12:52:34;;;;;;;0.50;0.32;;;20.20;39.10;;;;;;4820524;29;20030;-76
2021/01/21 12:55:00;;;;;;;2.63;0.13;;;20.30;39.10;;;;;;4828458;29;20053;-76
2021/01/21 12:57:27;;;;;;;0.47;0.28;;;20.30;39.10;;;;;;4824148;29;20034;-76
2021/01/21 12:59:56;;;;;;;1.83;0.10;;;20.30;39.50;;;;;;4840248;29;20564;-76